Time;durP1;ratioP1;P1;durP2;ratioP2;P2;SDS_P1;SDS_P2;PMS_P1;PMS_P2;Temp;Humidity;BMP_temperature;BMP_pressure;BME280_temperature;BME280_humidity;BME280_pressure;Samples;Min_cycle;Max_cycle;Signal;HPM_P1;HPM_P2
2023/07/13 00:02:21;;;;;;;2.80;2.00;;;26.20;43.60;26.80;100724.00;;;;5011129;28;20789;-51
2023/07/13 00:04:47;;;;;;;2.40;1.85;;;26.20;43.60;26.70;100733.00;;;;5010536;28;20279;-50
2023/07/13 00:07:14;;;;;;;2.60;1.92;;;26.20;43.70;26.70;100729.00;;;;5010427;28;20337;-50
2023/07/13 00:09:40;;;;;;;2.83;2.10;;;26.20;43.70;26.70;100731.00;;;;5010376;28;20219;-51
2023/07/13 00:12:28;;;;;;;3.05;2.00;;;26.20;43.90;26.70;100722.00;;;;5010457;28;20176;-51
2023/07/13 00:14:59;;;;;;;2.08;1.88;;;26.20;43.90;26.70;100682.00;;;;5006962;28;20569;-52
2023/07/13 00:17:25;;;;;;;2.78;2.20;;;26.10;43.80;26.70;100726.00;;;;5019877;28;20160;-51
2023/07/13 00:19:51;;;;;;;2.63;1.90;;;26.10;43.80;26.70;100720.00;;;;5024297;28;20234;-51
2023/07/13 00:22:17;;;;;;;3.33;2.10;;;26.10;43.80;26.60;100730.00;;;;5009663;28;20254;-53
2023/07/13 00:24:44;;;;;;;2.45;2.10;;;26.20;43.90;26.60;100732.00;;;;5009777;28;20210;-51
2023/07/13 00:27:10;;;;;;;2.17;1.98;;;26.10;43.80;26.60;100737.00;;;;4993740;28;20168;-54
2023/07/13 00:29:36;;;;;;;2.85;2.00;;;26.10;43.80;26.60;100735.00;;;;5010578;28;20670;-53
2023/07/13 00:32:06;;;;;;;2.75;1.98;;;26.10;43.80;26.60;100733.00;;;;5014862;28;20234;-53
2023/07/13 00:34:32;;;;;;;2.22;1.75;;;26.10;43.80;26.60;100730.00;;;;5024236;28;20175;-51
2023/07/13 00:37:06;;;;;;;2.47;1.90;;;26.00;43.70;26.50;100729.00;;;;5086932;27;1241883;-51
2023/07/13 00:39:32;;;;;;;3.22;1.80;;;26.00;43.80;26.50;100727.00;;;;5086493;28;20227;-51
2023/07/13 00:41:58;;;;;;;1.77;1.67;;;26.00;43.80;26.50;100726.00;;;;5086397;28;20196;-52
2023/07/13 00:44:24;;;;;;;2.63;1.95;;;26.00;43.80;26.50;100720.00;;;;5086427;28;20651;-50
2023/07/13 00:46:50;;;;;;;3.25;2.10;;;26.00;43.80;26.50;100730.00;;;;5086433;28;20184;-50
2023/07/13 00:49:20;;;;;;;2.53;1.80;;;26.00;43.80;26.50;100724.00;;;;5085021;28;20180;-52
2023/07/13 00:51:58;;;;;;;2.35;2.00;;;26.00;43.80;26.50;100732.00;;;;5086082;28;20165;-50
2023/07/13 00:54:38;;;;;;;2.42;1.90;;;26.00;43.90;26.40;100719.00;;;;5085712;28;20666;-51
2023/07/13 00:57:07;;;;;;;2.60;1.92;;;25.90;43.80;26.40;100731.00;;;;5084141;28;20177;-51
2023/07/13 00:59:34;;;;;;;2.00;1.80;;;25.90;43.80;26.40;100714.00;;;;5084597;28;20248;-51
2023/07/13 01:02:00;;;;;;;2.35;1.92;;;25.90;44.00;26.40;100731.00;;;;5068083;28;20185;-51
2023/07/13 01:04:26;;;;;;;2.45;2.13;;;25.90;44.00;26.40;100721.00;;;;5085537;28;20215;-52
2023/07/13 01:06:52;;;;;;;2.92;2.00;;;25.90;43.90;26.40;100725.00;;;;5085530;28;20174;-51
2023/07/13 01:09:18;;;;;;;2.40;2.10;;;25.90;44.10;26.30;100721.00;;;;5067432;28;20185;-51
2023/07/13 01:11:45;;;;;;;4.53;2.10;;;25.90;44.10;26.30;100706.00;;;;5085795;28;20207;-51
2023/07/13 01:14:10;;;;;;;2.20;2.00;;;25.80;44.00;26.30;100712.00;;;;5084189;28;20782;-51
2023/07/13 01:16:37;;;;;;;3.17;2.03;;;25.80;44.00;26.30;100727.00;;;;5085525;28;20189;-52
2023/07/13 01:19:14;;;;;;;2.75;2.00;;;25.80;44.10;26.30;100723.00;;;;5084129;28;20209;-51
2023/07/13 01:21:42;;;;;;;2.22;1.90;;;25.70;44.20;26.20;100712.00;;;;5050762;28;20679;-51
2023/07/13 01:24:09;;;;;;;2.67;1.98;;;25.70;44.20;26.20;100726.00;;;;5084651;28;20314;-52
2023/07/13 01:26:34;;;;;;;3.28;1.92;;;25.70;44.30;26.20;100720.00;;;;5102847;28;20173;-52
2023/07/13 01:29:01;;;;;;;3.30;1.88;;;25.70;44.30;26.20;100719.00;;;;5088458;28;20200;-52
2023/07/13 01:31:27;;;;;;;2.40;1.90;;;25.70;44.30;26.20;100723.00;;;;5103029;28;20709;-51
2023/07/13 01:33:53;;;;;;;2.10;1.90;;;25.60;44.40;26.20;100727.00;;;;5086676;28;20173;-51
2023/07/13 01:36:21;;;;;;;2.13;1.88;;;25.60;44.40;26.10;100726.00;;;;5086383;28;20209;-51
2023/07/13 01:38:46;;;;;;;2.28;1.90;;;25.60;44.40;26.10;100723.00;;;;5085293;28;20276;-54
2023/07/13 01:41:12;;;;;;;2.20;2.00;;;25.60;44.40;26.10;100730.00;;;;5085508;28;20191;-51
2023/07/13 01:43:39;;;;;;;2.33;1.90;;;25.60;44.50;26.10;100726.00;;;;5084815;28;20161;-51
2023/07/13 01:46:04;;;;;;;2.20;2.00;;;25.50;44.50;26.10;100727.00;;;;5086179;28;20546;-51
2023/07/13 01:48:30;;;;;;;2.10;1.90;;;25.60;44.60;26.10;100717.00;;;;5071200;28;20197;-50
2023/07/13 01:50:56;;;;;;;2.03;1.83;;;25.50;44.70;26.00;100729.00;;;;5071593;28;20173;-51
2023/07/13 01:53:22;;;;;;;2.20;2.00;;;25.50;44.70;26.00;100720.00;;;;5070987;28;20200;-52
2023/07/13 01:55:47;;;;;;;2.75;1.80;;;25.50;44.60;26.00;100717.00;;;;5071026;28;20247;-52
2023/07/13 01:58:13;;;;;;;2.50;2.20;;;25.50;44.60;26.00;100725.00;;;;5070739;28;20917;-51
2023/07/13 02:00:39;;;;;;;2.25;2.00;;;25.50;44.60;25.90;100727.00;;;;5070815;28;20647;-51
2023/07/13 02:03:04;;;;;;;1.90;1.80;;;25.50;44.70;25.90;100720.00;;;;5071101;28;20215;-51
2023/07/13 02:05:30;;;;;;;2.20;1.80;;;25.50;44.80;25.90;100723.00;;;;5070858;28;20174;-51
2023/07/13 02:07:56;;;;;;;2.53;1.92;;;25.40;44.60;25.90;100726.00;;;;5070755;28;20282;-51
2023/07/13 02:10:21;;;;;;;1.67;1.58;;;25.40;44.60;25.90;100740.00;;;;5070641;28;20663;-57
2023/07/13 02:12:49;;;;;;;1.73;1.63;;;25.40;44.70;25.90;100732.00;;;;5070950;28;20644;-51
2023/07/13 02:15:15;;;;;;;2.38;1.90;;;25.40;44.80;25.80;100737.00;;;;5070835;28;20241;-52
2023/07/13 02:17:40;;;;;;;2.70;1.75;;;25.40;44.80;25.80;100740.00;;;;5070700;28;20672;-52
2023/07/13 02:20:07;;;;;;;2.72;1.88;;;25.40;44.80;25.80;100744.00;;;;5070479;28;20170;-51
2023/07/13 02:22:33;;;;;;;2.85;2.10;;;25.30;44.90;25.80;100739.00;;;;5075416;28;20172;-51
2023/07/13 02:24:59;;;;;;;2.38;1.85;;;25.30;44.80;25.80;100745.00;;;;5086910;28;20361;-52
2023/07/13 02:27:25;;;;;;;3.20;1.90;;;25.30;44.90;25.80;100733.00;;;;5071528;28;20648;-50
2023/07/13 02:29:53;;;;;;;2.08;1.83;;;25.30;44.90;25.80;100742.00;;;;5053050;28;20276;-50
2023/07/13 02:32:19;;;;;;;3.55;1.83;;;25.30;45.00;25.80;100751.00;;;;5072205;28;20177;-52
2023/07/13 02:34:44;;;;;;;3.05;2.33;;;25.30;44.90;25.70;100740.00;;;;5071151;28;20182;-51
2023/07/13 02:37:10;;;;;;;1.80;1.70;;;25.30;45.00;25.70;100730.00;;;;5072381;28;20213;-52
2023/07/13 02:39:36;;;;;;;2.17;1.98;;;25.30;44.90;25.70;100727.00;;;;5088522;28;20170;-51
2023/07/13 02:42:02;;;;;;;2.22;1.60;;;25.20;44.90;25.70;100732.00;;;;5071979;28;20169;-51
2023/07/13 02:44:27;;;;;;;1.90;1.70;;;25.20;45.00;25.70;100655.00;;;;5069836;28;20671;-51
2023/07/13 02:46:53;;;;;;;2.83;1.83;;;25.20;45.00;25.70;100735.00;;;;5068981;28;20174;-51
2023/07/13 02:49:19;;;;;;;3.13;2.00;;;25.20;45.00;25.70;100752.00;;;;5070023;28;20201;-51
2023/07/13 02:51:45;;;;;;;2.00;1.63;;;25.20;45.10;25.60;100731.00;;;;5069566;28;20169;-50
2023/07/13 02:54:11;;;;;;;2.00;1.80;;;25.20;45.80;25.60;100738.00;;;;5069634;28;20524;-51
2023/07/13 02:56:38;;;;;;;2.55;1.80;;;25.10;45.10;25.60;100747.00;;;;5069864;28;20213;-50
2023/07/13 02:59:04;;;;;;;3.15;1.90;;;25.10;45.10;25.60;100741.00;;;;5067670;28;20193;-52
2023/07/13 03:01:30;;;;;;;3.05;1.90;;;25.10;45.20;25.60;100740.00;;;;5070658;28;20170;-51
2023/07/13 03:03:56;;;;;;;2.45;1.83;;;25.00;45.20;25.60;100745.00;;;;5069748;28;20676;-50
2023/07/13 03:06:22;;;;;;;3.00;1.88;;;25.10;45.30;25.60;100745.00;;;;5070700;28;20545;-50
2023/07/13 03:08:49;;;;;;;2.30;1.80;;;25.10;45.30;25.50;100751.00;;;;5070663;28;20197;-50
2023/07/13 03:11:17;;;;;;;1.60;1.50;;;25.00;45.40;25.50;100746.00;;;;5070587;28;20186;-51
2023/07/13 03:13:43;;;;;;;3.83;1.90;;;25.00;46.00;25.50;100750.00;;;;5070054;28;20173;-51
2023/07/13 03:16:09;;;;;;;1.80;1.70;;;25.00;45.40;25.50;100759.00;;;;5070091;28;20207;-51
2023/07/13 03:18:36;;;;;;;2.28;1.70;;;25.00;45.40;25.50;100752.00;;;;5070671;28;20225;-51
2023/07/13 03:21:01;;;;;;;2.10;1.80;;;25.00;45.40;25.40;100751.00;;;;5069210;28;20174;-51
2023/07/13 03:23:27;;;;;;;2.35;1.90;;;25.00;45.50;25.40;100750.00;;;;5051843;28;20181;-52
2023/07/13 03:26:08;;;;;;;3.28;1.83;;;24.90;45.30;25.40;100751.00;;;;5066399;28;20208;-54
2023/07/13 03:28:33;;;;;;;2.88;2.00;;;24.90;45.80;25.40;100753.00;;;;5067375;28;20737;-59
2023/07/13 03:31:04;;;;;;;2.88;2.28;;;25.00;45.40;25.40;100757.00;;;;5068451;28;20201;-59
2023/07/13 03:33:30;;;;;;;3.38;2.20;;;25.10;45.30;25.40;100758.00;;;;5069443;28;20181;-59
2023/07/13 03:35:56;;;;;;;2.22;1.90;;;25.10;45.00;25.40;100759.00;;;;5069345;28;20308;-59
2023/07/13 03:38:22;;;;;;;2.58;2.10;;;25.00;44.90;25.30;100766.00;;;;5070047;28;20239;-59
2023/07/13 03:40:48;;;;;;;4.32;2.45;;;25.00;45.00;25.30;100769.00;;;;5069433;28;20185;-60
2023/07/13 03:43:14;;;;;;;3.70;2.30;;;25.00;44.90;25.30;100765.00;;;;5069260;28;20778;-58
2023/07/13 03:45:40;;;;;;;3.78;2.30;;;25.00;44.90;25.30;100763.00;;;;5069478;28;20177;-58
2023/07/13 03:48:05;;;;;;;3.53;2.20;;;25.00;44.80;25.30;100769.00;;;;5069724;28;20201;-59
2023/07/13 03:50:31;;;;;;;3.13;2.15;;;24.90;44.70;25.20;100768.00;;;;5069519;28;20169;-59
2023/07/13 03:52:58;;;;;;;4.32;2.28;;;24.90;44.70;25.20;100776.00;;;;5069146;28;20174;-59
2023/07/13 03:55:24;;;;;;;2.95;2.20;;;24.80;44.60;25.10;100781.00;;;;5068275;28;20197;-58
2023/07/13 03:58:23;;;;;;;3.57;2.53;;;24.80;44.60;25.10;100785.00;;;;5069184;28;20192;-58
2023/07/13 04:00:50;;;;;;;3.53;2.27;;;24.70;45.20;25.00;100783.00;;;;5067932;28;20182;-59
2023/07/13 04:03:16;;;;;;;2.10;1.90;;;24.70;44.50;25.00;100784.00;;;;5068848;28;20177;-60
2023/07/13 04:05:42;;;;;;;2.47;2.20;;;24.60;44.60;24.90;100780.00;;;;5068884;28;20560;-59
2023/07/13 04:08:07;;;;;;;3.70;2.17;;;24.60;44.60;24.90;100787.00;;;;5069216;28;20193;-58
2023/07/13 04:10:34;;;;;;;2.47;1.80;;;24.50;44.70;24.90;100790.00;;;;5068851;28;20177;-58
2023/07/13 04:12:59;;;;;;;3.63;2.13;;;24.50;44.60;24.80;100796.00;;;;5068742;28;20173;-58
2023/07/13 04:15:28;;;;;;;3.50;2.17;;;24.50;44.60;24.80;100792.00;;;;5068675;28;20216;-58
2023/07/13 04:17:54;;;;;;;3.17;2.17;;;24.50;44.70;24.70;100797.00;;;;5051661;28;20193;-59
2023/07/13 04:20:20;;;;;;;4.77;2.20;;;24.40;44.60;24.70;100801.00;;;;5068198;28;20709;-58
2023/07/13 04:22:46;;;;;;;2.90;2.00;;;24.40;44.80;24.70;100807.00;;;;5068708;28;20161;-58
2023/07/13 04:25:11;;;;;;;3.27;2.10;;;24.40;44.90;24.60;100807.00;;;;5073223;28;20170;-58
2023/07/13 04:27:39;;;;;;;4.37;2.50;;;24.30;45.00;24.60;100806.00;;;;5081380;28;20200;-59
2023/07/13 04:30:06;;;;;;;2.90;2.00;;;24.30;45.00;24.60;100804.00;;;;5070601;28;20188;-58
2023/07/13 04:32:32;;;;;;;3.10;2.23;;;24.30;45.10;24.60;100798.00;;;;5036555;28;20254;-59
2023/07/13 04:34:59;;;;;;;3.70;2.30;;;24.20;45.30;24.60;100806.00;;;;5069969;28;20174;-59
2023/07/13 04:37:29;;;;;;;3.10;2.27;;;24.20;45.30;24.50;100806.00;;;;5071378;28;20180;-60
2023/07/13 04:39:54;;;;;;;3.60;2.13;;;24.10;45.40;24.50;100805.00;;;;5063255;28;20523;-58
2023/07/13 04:42:20;;;;;;;3.83;2.13;;;24.10;45.60;24.50;100806.00;;;;5079664;28;20181;-58
2023/07/13 04:44:50;;;;;;;3.97;2.10;;;24.10;45.90;24.40;100807.00;;;;5069253;28;20173;-58
2023/07/13 04:47:15;;;;;;;3.17;2.10;;;24.10;46.00;24.40;100803.00;;;;5051589;28;20647;-60
2023/07/13 04:49:41;;;;;;;3.17;2.13;;;24.10;46.00;24.40;100812.00;;;;5069214;28;20211;-60
2023/07/13 04:52:07;;;;;;;3.17;2.17;;;24.00;46.10;24.40;100815.00;;;;5068576;28;20181;-59
2023/07/13 04:54:34;;;;;;;3.93;2.30;;;24.00;46.10;24.40;100812.00;;;;5068344;28;20173;-59
2023/07/13 04:57:00;;;;;;;4.00;2.23;;;24.00;46.20;24.30;100811.00;;;;5050601;28;20201;-60
2023/07/13 04:59:26;;;;;;;2.23;2.03;;;24.00;46.20;24.30;100814.00;;;;5068933;28;20190;-58
2023/07/13 05:01:51;;;;;;;4.00;2.27;;;24.00;47.10;24.30;100809.00;;;;5068429;28;20165;-59
2023/07/13 05:04:17;;;;;;;3.40;2.30;;;24.00;46.60;24.20;100810.00;;;;5068064;28;20201;-59
2023/07/13 05:06:43;;;;;;;3.90;2.47;;;23.90;46.50;24.20;100817.00;;;;5068892;28;20180;-58
2023/07/13 05:09:09;;;;;;;3.63;2.23;;;23.90;46.70;24.20;100822.00;;;;5068469;28;20741;-59
2023/07/13 05:11:34;;;;;;;3.53;2.20;;;23.80;46.70;24.20;100821.00;;;;5050567;28;20176;-59
2023/07/13 05:14:01;;;;;;;3.93;2.27;;;23.80;46.70;24.10;100827.00;;;;5068517;28;20176;-58
2023/07/13 05:16:27;;;;;;;4.17;2.00;;;23.80;46.80;24.10;100822.00;;;;5068516;28;20212;-59
2023/07/13 05:18:53;;;;;;;4.53;2.20;;;23.80;47.20;24.10;100831.00;;;;5068844;28;20181;-59
2023/07/13 05:21:19;;;;;;;3.70;2.20;;;23.80;47.20;24.00;100826.00;;;;5068903;28;20162;-59
2023/07/13 05:23:44;;;;;;;3.90;2.40;;;23.80;47.40;24.00;100834.00;;;;5071317;28;20176;-59
2023/07/13 05:26:10;;;;;;;4.23;2.33;;;23.60;47.30;24.00;100833.00;;;;5072054;28;20236;-63
2023/07/13 05:28:36;;;;;;;2.90;2.37;;;23.60;47.50;24.00;100836.00;;;;5072394;28;20197;-59
2023/07/13 05:31:02;;;;;;;4.57;2.23;;;23.60;47.60;24.00;100832.00;;;;5072659;28;20170;-60
2023/07/13 05:33:28;;;;;;;4.40;2.47;;;23.60;47.80;23.90;100836.00;;;;5071942;28;20173;-59
2023/07/13 05:35:53;;;;;;;3.90;2.30;;;23.60;47.80;23.90;100832.00;;;;5071824;28;20213;-58
2023/07/13 05:38:19;;;;;;;5.10;2.40;;;23.60;47.80;23.90;100839.00;;;;5073824;28;20581;-59
2023/07/13 05:40:45;;;;;;;4.23;2.30;;;23.50;48.10;23.80;100848.00;;;;5073868;28;20166;-58
2023/07/13 05:43:11;;;;;;;6.50;2.17;;;23.50;48.20;23.80;100835.00;;;;5071836;28;20205;-58
2023/07/13 05:45:37;;;;;;;3.73;2.40;;;23.50;48.30;23.80;100837.00;;;;5071448;28;20266;-59
2023/07/13 05:48:03;;;;;;;5.73;2.43;;;23.40;48.40;23.80;100850.00;;;;5071846;28;20272;-59
2023/07/13 05:50:29;;;;;;;3.60;2.30;;;23.40;48.60;23.80;100850.00;;;;5071867;28;20177;-58
2023/07/13 05:52:56;;;;;;;3.57;2.50;;;23.40;48.60;23.70;100856.00;;;;5071659;28;20850;-58
2023/07/13 05:55:22;;;;;;;5.33;2.50;;;23.40;48.90;23.60;100860.00;;;;5070893;28;20685;-58
2023/07/13 05:57:47;;;;;;;4.07;2.37;;;23.40;49.10;23.60;100857.00;;;;5052428;28;20194;-58
2023/07/13 06:00:14;;;;;;;5.03;2.30;;;23.40;49.10;23.60;100847.00;;;;5054923;28;20174;-57
2023/07/13 06:02:39;;;;;;;4.33;2.80;;;23.40;49.30;23.50;100861.00;;;;5052946;28;20293;-58
2023/07/13 06:05:06;;;;;;;4.00;2.60;;;23.30;49.40;23.50;100863.00;;;;5033619;28;20754;-58
2023/07/13 06:07:31;;;;;;;4.43;2.60;;;23.30;49.80;23.50;100862.00;;;;5051808;28;20202;-58
2023/07/13 06:09:59;;;;;;;3.70;2.50;;;23.20;50.00;23.40;100855.00;;;;5051525;28;20186;-58
2023/07/13 06:12:25;;;;;;;5.13;2.63;;;23.20;50.10;23.40;100863.00;;;;5051271;28;20171;-58
2023/07/13 06:14:51;;;;;;;4.53;2.73;;;23.20;50.50;23.30;100858.00;;;;5050929;28;20176;-57
2023/07/13 06:17:16;;;;;;;4.57;2.60;;;23.20;50.70;23.30;100857.00;;;;5051383;28;20261;-58
2023/07/13 06:19:42;;;;;;;6.67;2.60;;;23.20;50.80;23.30;100869.00;;;;5051931;28;20166;-58
2023/07/13 06:22:08;;;;;;;5.90;2.53;;;23.10;51.10;23.20;100863.00;;;;5051214;28;20170;-58
2023/07/13 06:24:33;;;;;;;4.27;2.40;;;23.10;51.30;23.20;100868.00;;;;5062005;28;20166;-57
2023/07/13 06:26:59;;;;;;;5.40;2.70;;;23.00;51.40;23.20;100867.00;;;;5070775;28;20174;-57
2023/07/13 06:29:25;;;;;;;4.27;2.67;;;23.00;51.70;23.10;100866.00;;;;5061258;28;20190;-57
2023/07/13 06:31:51;;;;;;;6.03;2.83;;;23.00;51.90;23.10;100874.00;;;;5050990;28;20545;-57
2023/07/13 06:34:16;;;;;;;6.23;2.80;;;23.00;52.10;23.10;100888.00;;;;5050687;28;20228;-57
2023/07/13 06:36:42;;;;;;;6.70;2.70;;;22.90;52.40;23.10;100868.00;;;;5052986;28;20259;-57
2023/07/13 06:39:08;;;;;;;4.23;2.23;;;22.90;52.60;23.10;100886.00;;;;5056432;28;20252;-57
2023/07/13 06:41:34;;;;;;;3.90;2.70;;;22.90;52.60;23.00;100879.00;;;;5053748;28;20174;-57
2023/07/13 06:43:59;;;;;;;5.70;3.07;;;22.90;52.60;23.00;100884.00;;;;5032902;28;20181;-57
2023/07/13 06:46:25;;;;;;;6.73;2.93;;;22.80;52.80;23.00;100864.00;;;;5050657;28;20178;-58
2023/07/13 06:48:51;;;;;;;6.37;3.00;;;22.80;53.00;23.00;100885.00;;;;5032991;28;20629;-58
2023/07/13 06:51:17;;;;;;;7.80;3.37;;;22.80;53.00;22.90;100882.00;;;;5050800;28;20243;-57
2023/07/13 06:53:43;;;;;;;5.47;2.70;;;22.70;53.20;22.90;100884.00;;;;5032224;28;20178;-58
2023/07/13 06:56:10;;;;;;;5.07;2.77;;;22.80;53.20;22.90;100883.00;;;;5050077;28;20270;-58
2023/07/13 06:58:36;;;;;;;7.80;2.90;;;22.80;53.30;22.90;100881.00;;;;5050618;28;20205;-58
2023/07/13 07:01:02;;;;;;;5.67;2.80;;;22.70;53.50;22.90;100881.00;;;;5050619;28;20173;-58
2023/07/13 07:03:28;;;;;;;6.30;2.70;;;22.70;53.60;22.90;100889.00;;;;5050372;28;20179;-57
2023/07/13 07:05:54;;;;;;;5.70;3.00;;;22.70;53.60;22.90;100884.00;;;;5050392;28;20205;-58
2023/07/13 08:16:32;;;;;;;5.88;3.50;;;21.80;56.50;22.60;100928.00;;;;6260265;22;1215012;-58
2023/07/13 08:18:58;;;;;;;4.07;3.20;;;22.10;57.00;22.50;100907.00;;;;6280977;22;20153;-57
2023/07/13 08:21:24;;;;;;;6.70;3.47;;;22.10;56.50;22.50;100918.00;;;;6276825;22;20172;-58
2023/07/13 08:23:49;;;;;;;4.43;3.53;;;22.20;56.40;22.50;100909.00;;;;6276426;22;20223;-58
2023/07/13 08:26:16;;;;;;;7.07;4.03;;;22.10;56.30;22.50;100914.00;;;;6278431;22;20161;-58
2023/07/13 08:28:41;;;;;;;5.27;3.90;;;22.20;56.40;22.50;100905.00;;;;6279872;22;20660;-58
2023/07/13 08:31:07;;;;;;;4.27;3.40;;;22.20;56.20;22.50;100902.00;;;;6280974;22;20179;-50
2023/07/13 08:33:35;;;;;;;6.13;3.70;;;22.30;56.40;22.50;100890.00;;;;6281034;22;20144;-51
2023/07/13 08:36:00;;;;;;;4.97;3.47;;;22.30;56.40;22.50;100899.00;;;;6278805;22;20175;-50
2023/07/13 08:38:26;;;;;;;4.73;3.33;;;22.30;56.00;22.60;100904.00;;;;6280104;22;20148;-50
2023/07/13 08:40:56;;;;;;;5.33;3.20;;;22.30;55.80;22.60;100907.00;;;;6280222;22;20163;-49
2023/07/13 08:43:30;;;;;;;5.13;3.30;;;22.30;55.60;22.70;100901.00;;;;6280282;22;20149;-49
2023/07/13 08:46:04;;;;;;;4.93;3.40;;;22.40;55.50;22.70;100893.00;;;;6227727;22;20195;-50
2023/07/13 08:48:49;;;;;;;4.13;3.20;;;22.40;55.30;22.80;100886.00;;;;6279279;22;20137;-49
2023/07/13 08:51:35;;;;;;;5.03;3.30;;;22.40;55.30;22.80;100895.00;;;;6258856;22;20156;-50
2023/07/13 08:54:32;;;;;;;4.63;3.37;;;22.40;55.30;22.80;100884.00;;;;6267282;22;20180;-51
2023/07/13 08:56:59;;;;;;;4.37;3.20;;;22.40;55.30;22.80;100880.00;;;;6255819;22;20172;-50
2023/07/13 08:59:28;;;;;;;4.73;3.10;;;22.40;55.30;22.90;100886.00;;;;6253821;22;20171;-52
2023/07/13 09:02:28;;;;;;;6.33;3.27;;;22.40;55.50;22.90;100894.00;;;;6227857;22;20327;-50
2023/07/13 09:04:59;;;;;;;4.33;3.00;;;22.40;55.50;22.90;100894.00;;;;6281518;22;20286;-50
2023/07/13 09:08:11;;;;;;;4.53;3.07;;;22.40;55.40;22.90;100897.00;;;;6277629;22;20141;-48
2023/07/13 09:10:49;;;;;;;3.50;3.10;;;22.40;55.40;22.90;100896.00;;;;6276942;22;20152;-49
2023/07/13 09:13:57;;;;;;;4.83;3.27;;;22.50;55.40;22.90;100900.00;;;;6277273;22;20168;-48
2023/07/13 09:16:23;;;;;;;5.33;2.80;;;22.60;55.40;23.00;100901.00;;;;6229217;22;20260;-48
2023/07/13 09:18:54;;;;;;;5.20;3.10;;;22.50;55.20;23.00;100894.00;;;;6273252;22;20169;-48
2023/07/13 09:21:33;;;;;;;3.90;2.80;;;22.60;55.40;23.00;100901.00;;;;6266820;22;20165;-48
2023/07/13 09:24:28;;;;;;;4.43;2.90;;;22.60;55.30;23.10;100889.00;;;;6219588;22;20636;-48
2023/07/13 09:26:55;;;;;;;3.73;2.80;;;22.60;55.20;23.10;100898.00;;;;6271656;22;20165;-48
2023/07/13 09:29:28;;;;;;;3.47;2.70;;;22.60;55.10;23.10;100890.00;;;;6217904;22;20490;-48
2023/07/13 09:31:58;;;;;;;3.50;2.57;;;22.70;55.20;23.20;100889.00;;;;6270697;22;20142;-48
2023/07/13 09:34:23;;;;;;;3.40;2.77;;;22.70;55.00;23.20;100895.00;;;;6219680;22;20205;-48
2023/07/13 09:36:49;;;;;;;3.03;2.43;;;22.70;55.00;23.30;100893.00;;;;6270308;22;20258;-47
2023/07/13 09:39:30;;;;;;;3.83;3.07;;;22.70;54.80;23.30;100892.00;;;;6271738;22;20317;-47
2023/07/13 09:42:11;;;;;;;5.90;2.80;;;22.80;54.80;23.30;100897.00;;;;6248597;22;20290;-48
2023/07/13 09:44:58;;;;;;;2.60;2.40;;;22.80;54.70;23.40;100896.00;;;;6271931;22;20175;-49
2023/07/13 09:47:27;;;;;;;3.77;2.70;;;22.80;54.60;23.40;100888.00;;;;6271628;22;20515;-48
2023/07/13 09:50:04;;;;;;;3.53;2.60;;;22.90;54.80;23.40;100896.00;;;;6272264;22;20225;-48
2023/07/13 09:52:47;;;;;;;3.33;2.57;;;22.90;54.70;23.50;100896.00;;;;6272381;22;20149;-48
2023/07/13 09:55:39;;;;;;;3.10;2.40;;;22.90;54.70;23.50;100893.00;;;;6269880;22;20478;-48
2023/07/13 09:58:14;;;;;;;3.97;2.63;;;23.00;55.00;23.50;100902.00;;;;6256190;22;20550;-48
2023/07/13 10:00:40;;;;;;;6.63;3.20;;;23.00;55.00;23.50;100900.00;;;;6270704;22;20141;-48
2023/07/13 10:03:20;;;;;;;3.30;2.60;;;23.00;55.20;23.60;100912.00;;;;6269084;22;20423;-48
2023/07/13 10:05:47;;;;;;;3.57;2.43;;;23.00;55.40;23.60;100911.00;;;;6268303;22;20447;-48
2023/07/13 10:08:30;;;;;;;6.20;2.70;;;23.00;55.30;23.60;100911.00;;;;6272473;22;20535;-47
2023/07/13 10:11:17;;;;;;;3.53;2.50;;;23.10;55.30;23.70;100913.00;;;;6270779;22;20587;-48
2023/07/13 10:13:57;;;;;;;5.37;2.60;;;23.10;55.30;23.70;100901.00;;;;6272340;22;20247;-48
2023/07/13 10:16:32;;;;;;;4.17;2.37;;;23.10;55.40;23.70;100911.00;;;;6271630;22;20642;-47
2023/07/13 10:19:22;;;;;;;2.83;2.47;;;23.20;55.70;23.80;100903.00;;;;6245188;22;20129;-48
2023/07/13 10:22:22;;;;;;;5.47;2.80;;;23.20;56.10;23.80;100913.00;;;;6247840;22;20648;-48
2023/07/13 10:24:48;;;;;;;3.30;2.50;;;23.20;56.20;23.90;100908.00;;;;6270443;22;20168;-48
2023/07/13 10:27:26;;;;;;;8.67;2.97;;;23.20;56.20;23.90;100915.00;;;;6244152;22;20145;-49
2023/07/13 10:30:25;;;;;;;5.43;2.50;;;23.20;56.50;23.90;100911.00;;;;6269846;22;20133;-47
2023/07/13 10:32:51;;;;;;;9.83;2.87;;;23.20;56.20;23.90;100912.00;;;;6271574;22;20570;-47
2023/07/13 10:35:18;;;;;;;4.10;2.43;;;23.30;56.20;23.90;100919.00;;;;6270810;22;20240;-47
2023/07/13 10:37:57;;;;;;;3.70;2.43;;;23.30;56.20;24.00;100914.00;;;;6270922;22;20149;-47
2023/07/13 10:40:39;;;;;;;5.33;2.60;;;23.40;56.00;24.00;100917.00;;;;6242666;22;20146;-47
2023/07/13 10:43:18;;;;;;;4.20;2.40;;;23.40;56.00;24.10;100922.00;;;;6245980;22;20283;-48
2023/07/13 10:45:45;;;;;;;3.07;2.30;;;23.40;55.90;24.10;100926.00;;;;6220853;22;20531;-47
2023/07/13 10:48:12;;;;;;;3.70;2.33;;;23.40;55.80;24.10;100927.00;;;;6244364;22;20198;-48
2023/07/13 10:50:38;;;;;;;3.53;2.30;;;23.50;56.20;24.20;100931.00;;;;6218013;22;20145;-50
2023/07/13 10:53:32;;;;;;;3.73;2.30;;;23.50;56.20;24.20;100924.00;;;;6220557;22;20227;-48
2023/07/13 10:56:12;;;;;;;3.00;2.30;;;23.50;56.10;24.20;100926.00;;;;6271615;22;20177;-48
2023/07/13 10:58:42;;;;;;;3.53;2.40;;;23.50;56.10;24.20;100937.00;;;;6270649;22;20218;-47
2023/07/13 11:01:16;;;;;;;4.00;2.40;;;23.50;56.10;24.20;100923.00;;;;6271997;22;20203;-48
2023/07/13 11:04:01;;;;;;;2.80;2.10;;;23.60;56.10;24.30;100920.00;;;;6272814;22;20171;-48
2023/07/13 11:06:28;;;;;;;3.87;2.23;;;23.60;56.00;24.30;100926.00;;;;6245336;22;20169;-49
2023/07/13 11:08:56;;;;;;;3.20;2.50;;;23.60;56.00;24.30;100920.00;;;;6277842;22;20232;-48
2023/07/13 11:11:38;;;;;;;4.20;2.57;;;23.60;56.00;24.40;100925.00;;;;6271529;22;20141;-48
2023/07/13 11:14:25;;;;;;;2.97;2.20;;;23.70;56.10;24.40;100926.00;;;;6268660;22;20492;-48
2023/07/13 11:16:51;;;;;;;2.90;2.40;;;23.60;55.90;24.40;100930.00;;;;6268864;22;20176;-48
2023/07/13 11:19:16;;;;;;;2.50;2.30;;;23.70;55.80;24.50;100934.00;;;;6271522;22;20145;-48
2023/07/13 11:22:03;;;;;;;4.20;2.40;;;23.70;55.60;24.50;100921.00;;;;6269059;22;20588;-48
2023/07/13 11:24:51;;;;;;;2.20;2.00;;;23.80;55.60;24.50;100929.00;;;;6270943;22;20256;-48
2023/07/13 11:28:03;;;;;;;2.40;2.20;;;23.80;55.50;24.50;100923.00;;;;6271018;22;20157;-47
2023/07/13 11:30:28;;;;;;;3.33;2.20;;;23.80;55.50;24.50;100922.00;;;;6238945;22;20175;-48
2023/07/13 11:33:07;;;;;;;3.10;2.00;;;23.80;55.50;24.60;100929.00;;;;6269635;22;20792;-48
2023/07/13 11:35:36;;;;;;;3.73;2.20;;;23.80;55.60;24.60;100922.00;;;;6269002;22;20164;-48
2023/07/13 11:38:02;;;;;;;2.93;2.10;;;23.80;55.60;24.60;100922.00;;;;6270107;22;20149;-48
2023/07/13 11:40:29;;;;;;;2.30;2.03;;;23.90;55.80;24.60;100931.00;;;;6269572;22;20150;-49
2023/07/13 11:43:02;;;;;;;2.47;2.27;;;23.90;55.70;24.60;100922.00;;;;6244686;22;20149;-48
2023/07/13 11:45:28;;;;;;;2.10;2.00;;;23.90;55.70;24.70;100919.00;;;;6270758;22;20188;-48
2023/07/13 11:47:56;;;;;;;2.47;2.13;;;23.90;55.80;24.70;100928.00;;;;6270296;22;20473;-48
2023/07/13 11:50:23;;;;;;;11.63;2.40;;;23.90;55.80;24.70;100926.00;;;;6270436;22;20492;-48
2023/07/13 11:52:50;;;;;;;2.40;2.20;;;24.00;55.90;24.70;100923.00;;;;6270557;22;20145;-48
2023/07/13 11:55:20;;;;;;;2.60;2.10;;;23.90;55.70;24.70;100925.00;;;;6244127;22;20180;-48
2023/07/13 11:57:50;;;;;;;2.30;2.10;;;24.00;55.80;24.80;100931.00;;;;6271008;22;20235;-48
2023/07/13 12:00:23;;;;;;;1.90;1.80;;;24.00;55.70;24.80;100915.00;;;;6271530;22;20600;-48
2023/07/13 12:02:51;;;;;;;2.20;2.00;;;24.00;55.70;24.80;100917.00;;;;6244285;22;20502;-48
2023/07/13 12:05:18;;;;;;;3.00;2.10;;;24.10;55.80;24.80;100918.00;;;;6267885;22;20204;-49
2023/07/13 12:07:44;;;;;;;3.43;2.20;;;24.00;55.60;24.90;100917.00;;;;6270906;22;20148;-46